Time;durP1;ratioP1;P1;durP2;ratioP2;P2;SDS_P1;SDS_P2;PMS_P1;PMS_P2;Temp;Humidity;BMP_temperature;BMP_pressure;BME280_temperature;BME280_humidity;BME280_pressure;Samples;Min_cycle;Max_cycle;Signal;HPM_P1;HPM_P2
2022/01/06 00:01:34;;;;;;;;;;;4.30;1.00;;;;;;5080207;28;20088;-79
2022/01/06 00:03:59;;;;;;;;;;;4.30;1.00;;;;;;5076454;28;19913;-79
2022/01/06 00:06:25;;;;;;;;;;;4.30;1.00;;;;;;5073973;28;20395;-79
2022/01/06 00:08:53;;;;;;;;;;;4.30;1.00;;;;;;5057985;28;19924;-79
2022/01/06 00:11:19;;;;;;;;;;;4.30;1.00;;;;;;5070963;28;19913;-79
2022/01/06 00:13:55;;;;;;;;;;;4.30;1.00;;;;;;5057308;28;20261;-79
2022/01/06 00:24:18;;;;;;;;;;;4.40;1.00;;;;;;5056095;28;20408;-79
2022/01/06 00:26:43;;;;;;;;;;;4.50;1.00;;;;;;5070161;28;19917;-79
2022/01/06 00:29:09;;;;;;;;;;;4.50;1.00;;;;;;5075134;28;19954;-79
2022/01/06 00:31:34;;;;;;;;;;;4.50;1.00;;;;;;5055788;28;19908;-79
2022/01/06 00:34:00;;;;;;;;;;;4.60;1.00;;;;;;5056723;28;19913;-79
2022/01/06 00:36:26;;;;;;;;;;;4.60;1.00;;;;;;5074025;28;20003;-79
2022/01/06 00:38:51;;;;;;;;;;;4.60;1.00;;;;;;5075014;28;19909;-79
2022/01/06 00:41:17;;;;;;;;;;;4.70;1.00;;;;;;5061670;28;19912;-79
2022/01/06 00:43:42;;;;;;;;;;;4.70;1.00;;;;;;5055853;28;19908;-79
2022/01/06 00:46:08;;;;;;;;;;;4.70;1.00;;;;;;5064018;28;19920;-79
2022/01/06 00:48:33;;;;;;;;;;;4.70;1.00;;;;;;5054837;28;19916;-79
2022/01/06 00:50:59;;;;;;;;;;;4.70;1.00;;;;;;5070995;28;19954;-79
2022/01/06 00:53:24;;;;;;;;;;;4.70;1.00;;;;;;5075700;28;19908;-79
2022/01/06 00:55:50;;;;;;;;;;;4.70;1.00;;;;;;5060769;28;19917;-80
2022/01/06 00:58:15;;;;;;;;;;;4.70;1.00;;;;;;5055816;28;19909;-79
2022/01/06 01:00:41;;;;;;;;;;;4.70;1.00;;;;;;5069738;28;19948;-80
2022/01/06 01:03:09;;;;;;;;;;;4.70;1.00;;;;;;5075792;28;19920;-80
2022/01/06 01:05:35;;;;;;;;;;;4.70;1.00;;;;;;5074428;28;19919;-80
2022/01/06 01:08:00;;;;;;;;;;;4.60;1.00;;;;;;5066070;28;19913;-79
2022/01/06 01:10:26;;;;;;;;;;;4.60;1.00;;;;;;5054702;28;20397;-79
2022/01/06 01:12:51;;;;;;;;;;;4.60;1.00;;;;;;5054367;28;19909;-79
2022/01/06 01:15:20;;;;;;;;;;;4.50;1.00;;;;;;5074062;28;19913;-80
2022/01/06 01:17:49;;;;;;;;;;;4.50;1.00;;;;;;5074552;28;19909;-79
2022/01/06 01:20:16;;;;;;;;;;;4.50;1.00;;;;;;5073597;28;19909;-79
2022/01/06 01:22:41;;;;;;;;;;;4.40;1.00;;;;;;5072516;28;19912;-80
2022/01/06 01:25:07;;;;;;;;;;;4.40;1.00;;;;;;5070189;28;19916;-79
2022/01/06 01:27:38;;;;;;;;;;;4.30;1.00;;;;;;5057678;28;19915;-79
2022/01/06 01:30:09;;;;;;;;;;;4.30;1.00;;;;;;5061134;28;19912;-79
2022/01/06 01:32:37;;;;;;;;;;;4.20;1.00;;;;;;5057925;28;20384;-79
2022/01/06 01:35:03;;;;;;;;;;;4.20;1.00;;;;;;5078641;28;19913;-80
2022/01/06 01:37:29;;;;;;;;;;;4.20;1.00;;;;;;5079027;28;20372;-80
2022/01/06 01:39:55;;;;;;;;;;;4.10;1.00;;;;;;5077730;28;19913;-80
2022/01/06 01:42:21;;;;;;;;;;;4.10;1.00;;;;;;5061322;28;20014;-80
2022/01/06 01:44:48;;;;;;;;;;;4.10;1.00;;;;;;5079000;28;19913;-80
2022/01/06 01:47:15;;;;;;;;;;;4.00;1.00;;;;;;5061029;28;19909;-80
2022/01/06 01:49:52;;;;;;;;;;;4.00;1.00;;;;;;5078390;28;19916;-79
2022/01/06 01:52:18;;;;;;;;;;;4.00;1.00;;;;;;5079272;28;19916;-80
2022/01/06 01:54:43;;;;;;;;;;;4.00;1.00;;;;;;5078526;28;20265;-79
2022/01/06 01:57:09;;;;;;;;;;;3.90;1.00;;;;;;5078754;28;19913;-80
2022/01/06 01:59:34;;;;;;;;;;;3.90;1.00;;;;;;5060424;28;19913;-79
2022/01/06 02:02:00;;;;;;;;;;;3.90;1.00;;;;;;5040618;28;19913;-80
2022/01/06 02:04:25;;;;;;;;;;;3.90;1.00;;;;;;5057560;28;19913;-79
2022/01/06 02:06:51;;;;;;;;;;;3.90;1.00;;;;;;5060195;28;20350;-80
2022/01/06 02:09:17;;;;;;;;;;;3.90;1.00;;;;;;5078537;28;19908;-79
2022/01/06 02:11:42;;;;;;;;;;;3.80;1.00;;;;;;5079017;28;20310;-79
2022/01/06 02:14:08;;;;;;;;;;;3.80;1.00;;;;;;5078407;28;19965;-80
2022/01/06 02:16:33;;;;;;;;;;;3.80;1.00;;;;;;5078677;28;19912;-80
2022/01/06 02:18:59;;;;;;;;;;;3.80;1.00;;;;;;5078224;28;19920;-79
2022/01/06 02:21:25;;;;;;;;;;;3.80;1.00;;;;;;5079139;28;19909;-79
2022/01/06 02:23:50;;;;;;;;;;;3.80;1.00;;;;;;5078147;28;19916;-80
2022/01/06 02:26:15;;;;;;;;;;;3.70;1.00;;;;;;5078565;28;20011;-80
2022/01/06 02:28:41;;;;;;;;;;;3.70;1.00;;;;;;5059453;28;19919;-80
2022/01/06 02:31:07;;;;;;;;;;;3.70;1.00;;;;;;5075725;28;19913;-80
2022/01/06 02:33:32;;;;;;;;;;;3.70;1.00;;;;;;5059598;28;19912;-81
2022/01/06 02:35:58;;;;;;;;;;;3.70;1.00;;;;;;5078405;28;19935;-80
2022/01/06 02:38:23;;;;;;;;;;;3.70;1.00;;;;;;5076543;28;19912;-79
2022/01/06 02:40:49;;;;;;;;;;;3.70;1.00;;;;;;5069751;28;19966;-80
2022/01/06 02:43:17;;;;;;;;;;;3.70;1.00;;;;;;5077004;28;19978;-80
2022/01/06 02:45:43;;;;;;;;;;;3.70;1.00;;;;;;5078442;28;19914;-79
2022/01/06 02:48:09;;;;;;;;;;;3.70;1.00;;;;;;5056948;28;19920;-80
2022/01/06 02:50:37;;;;;;;;;;;3.60;1.00;;;;;;5060321;28;19908;-80
2022/01/06 02:53:02;;;;;;;;;;;3.60;1.00;;;;;;5059483;28;19912;-80
2022/01/06 02:55:28;;;;;;;;;;;3.60;1.00;;;;;;5075946;28;19920;-79
2022/01/06 02:57:53;;;;;;;;;;;3.60;1.00;;;;;;5076417;28;19913;-80
2022/01/06 03:00:19;;;;;;;;;;;3.60;1.00;;;;;;5059030;28;20005;-79
2022/01/06 03:02:46;;;;;;;;;;;3.50;1.00;;;;;;5059166;28;20495;-79
2022/01/06 03:05:12;;;;;;;;;;;3.50;1.00;;;;;;5060329;28;20330;-80
2022/01/06 03:07:38;;;;;;;;;;;3.50;1.00;;;;;;5055516;28;20335;-80
2022/01/06 03:10:06;;;;;;;;;;;3.50;1.00;;;;;;5058113;28;19960;-80
2022/01/06 03:12:41;;;;;;;;;;;3.50;1.00;;;;;;5079925;28;19935;-80
2022/01/06 03:15:07;;;;;;;;;;;3.40;1.00;;;;;;5045924;28;19921;-79
2022/01/06 03:17:33;;;;;;;;;;;3.40;1.00;;;;;;5055189;28;19916;-80
2022/01/06 03:19:59;;;;;;;;;;;3.40;1.00;;;;;;5077268;28;19940;-80
2022/01/06 03:22:25;;;;;;;;;;;3.40;1.00;;;;;;5049996;28;19971;-80
2022/01/06 03:24:50;;;;;;;;;;;3.30;1.00;;;;;;5077496;28;19917;-79
2022/01/06 03:27:15;;;;;;;;;;;3.30;1.00;;;;;;5077268;28;20007;-79
2022/01/06 03:29:41;;;;;;;;;;;3.30;1.00;;;;;;5057989;28;19912;-79
2022/01/06 03:32:06;;;;;;;;;;;3.30;1.00;;;;;;5077082;28;19974;-79
2022/01/06 03:34:32;;;;;;;;;;;3.30;1.00;;;;;;5077880;28;20010;-80
2022/01/06 03:36:59;;;;;;;;;;;3.30;1.00;;;;;;5051316;28;19963;-80
2022/01/06 03:39:24;;;;;;;;;;;3.20;1.00;;;;;;5039791;28;19959;-79
2022/01/06 03:41:50;;;;;;;;;;;3.20;1.00;;;;;;5065562;28;19913;-80
2022/01/06 03:44:16;;;;;;;;;;;3.20;1.00;;;;;;5077428;28;19912;-80
2022/01/06 03:46:41;;;;;;;;;;;3.20;1.00;;;;;;5057012;28;20319;-79
2022/01/06 03:49:07;;;;;;;;;;;3.20;1.00;;;;;;5077245;28;19944;-80
2022/01/06 03:51:33;;;;;;;;;;;3.20;1.00;;;;;;5056316;28;20346;-80
2022/01/06 03:53:59;;;;;;;;;;;3.20;1.00;;;;;;5056672;28;19958;-79
2022/01/06 03:56:24;;;;;;;;;;;3.20;1.00;;;;;;5058260;28;19912;-80
2022/01/06 03:58:50;;;;;;;;;;;3.20;1.00;;;;;;5077415;28;19916;-79
2022/01/06 04:01:16;;;;;;;;;;;3.20;1.00;;;;;;5076506;28;19932;-79
2022/01/06 04:03:44;;;;;;;;;;;3.10;1.00;;;;;;5058993;28;19940;-79
2022/01/06 04:06:10;;;;;;;;;;;3.10;1.00;;;;;;5053339;28;19963;-79
2022/01/06 04:08:35;;;;;;;;;;;3.10;1.00;;;;;;5059167;28;19919;-80
2022/01/06 04:11:01;;;;;;;;;;;3.10;1.00;;;;;;5058016;28;19909;-80
2022/01/06 04:13:26;;;;;;;;;;;3.10;1.00;;;;;;5058993;28;19951;-80
2022/01/06 04:15:52;;;;;;;;;;;3.10;1.00;;;;;;5065282;28;19913;-79
2022/01/06 04:18:17;;;;;;;;;;;3.10;1.00;;;;;;5069536;28;19966;-80
2022/01/06 04:20:43;;;;;;;;;;;3.10;1.00;;;;;;5067223;28;20351;-80
2022/01/06 04:23:08;;;;;;;;;;;3.10;1.00;;;;;;5049519;28;19927;-79
2022/01/06 04:25:34;;;;;;;;;;;3.00;1.00;;;;;;5060805;28;19916;-80
2022/01/06 04:27:59;;;;;;;;;;;3.00;1.00;;;;;;5076003;28;20014;-80
2022/01/06 04:30:25;;;;;;;;;;;3.00;1.00;;;;;;5073663;28;19909;-80
2022/01/06 04:32:50;;;;;;;;;;;3.00;1.00;;;;;;5055750;28;19917;-80
2022/01/06 04:35:16;;;;;;;;;;;3.00;1.00;;;;;;5060959;28;19916;-80
2022/01/06 04:37:41;;;;;;;;;;;3.00;1.00;;;;;;5076237;28;19970;-80
2022/01/06 04:40:07;;;;;;;;;;;3.00;1.00;;;;;;5076699;28;19914;-81
2022/01/06 04:42:33;;;;;;;;;;;3.00;1.00;;;;;;5077094;28;19913;-80
2022/01/06 04:44:59;;;;;;;;;;;3.00;1.00;;;;;;5076839;28;20004;-81
2022/01/06 04:47:24;;;;;;;;;;;3.00;1.00;;;;;;5073859;28;20274;-80
2022/01/06 04:49:50;;;;;;;;;;;3.00;1.00;;;;;;5055636;28;19974;-80
2022/01/06 04:52:15;;;;;;;;;;;3.00;1.00;;;;;;5074274;28;20312;-80
2022/01/06 04:54:41;;;;;;;;;;;3.00;1.00;;;;;;5076523;28;19947;-80
2022/01/06 04:57:06;;;;;;;;;;;2.90;1.00;;;;;;5075882;28;19917;-80
2022/01/06 04:59:32;;;;;;;;;;;2.90;1.00;;;;;;5071736;28;20003;-80
2022/01/06 05:01:57;;;;;;;;;;;2.90;1.00;;;;;;5069443;28;19919;-80
2022/01/06 05:04:23;;;;;;;;;;;2.90;1.00;;;;;;5071080;28;19912;-79
2022/01/06 05:06:51;;;;;;;;;;;2.90;1.00;;;;;;5075194;28;19908;-80
2022/01/06 05:09:16;;;;;;;;;;;2.80;1.00;;;;;;5078242;28;19931;-80
2022/01/06 05:11:42;;;;;;;;;;;2.90;1.00;;;;;;5080335;28;19913;-80
2022/01/06 05:14:07;;;;;;;;;;;2.80;1.00;;;;;;5079387;28;19914;-80
2022/01/06 05:16:33;;;;;;;;;;;2.80;1.00;;;;;;5080803;28;19924;-80
2022/01/06 05:18:58;;;;;;;;;;;2.80;1.00;;;;;;5079635;28;19908;-80
2022/01/06 05:21:28;;;;;;;;;;;2.80;1.00;;;;;;5076959;28;19920;-79
2022/01/06 05:23:54;;;;;;;;;;;2.80;1.00;;;;;;5078172;28;20538;-79
2022/01/06 05:26:19;;;;;;;;;;;2.70;1.00;;;;;;5078214;28;20003;-80
2022/01/06 05:28:46;;;;;;;;;;;2.70;1.00;;;;;;5078216;28;20369;-80
2022/01/06 05:31:11;;;;;;;;;;;2.70;1.00;;;;;;5078830;28;19908;-79
2022/01/06 05:33:37;;;;;;;;;;;2.60;1.00;;;;;;5078036;28;20261;-80
2022/01/06 05:36:02;;;;;;;;;;;2.60;1.00;;;;;;5078334;28;19912;-80
2022/01/06 05:38:28;;;;;;;;;;;2.60;1.00;;;;;;5076760;28;19912;-80
2022/01/06 05:40:53;;;;;;;;;;;2.60;1.00;;;;;;5078790;28;20053;-79
2022/01/06 05:43:20;;;;;;;;;;;2.60;1.00;;;;;;5077368;28;20301;-80
2022/01/06 05:45:46;;;;;;;;;;;2.50;1.00;;;;;;5076569;28;19913;-80
2022/01/06 05:48:11;;;;;;;;;;;2.50;1.00;;;;;;5076848;28;19999;-80
2022/01/06 05:50:37;;;;;;;;;;;2.50;1.00;;;;;;5078338;28;19938;-80
2022/01/06 05:53:02;;;;;;;;;;;2.50;1.00;;;;;;5074897;28;19913;-80
2022/01/06 05:55:28;;;;;;;;;;;2.50;1.00;;;;;;5077685;28;20316;-80
2022/01/06 05:57:53;;;;;;;;;;;2.40;1.00;;;;;;5078525;28;19913;-80
2022/01/06 06:00:19;;;;;;;;;;;2.40;1.00;;;;;;5076893;28;19913;-80
2022/01/06 06:02:44;;;;;;;;;;;2.40;1.00;;;;;;5063583;28;19993;-80
2022/01/06 06:05:10;;;;;;;;;;;2.40;1.00;;;;;;5078190;28;19943;-80
2022/01/06 06:07:35;;;;;;;;;;;2.40;1.00;;;;;;5059773;28;20364;-80
2022/01/06 06:10:00;;;;;;;;;;;2.40;1.00;;;;;;5078379;28;19909;-80
2022/01/06 06:12:26;;;;;;;;;;;2.40;1.00;;;;;;5078317;28;19912;-80
2022/01/06 06:14:51;;;;;;;;;;;2.40;1.00;;;;;;5078932;28;19915;-80
2022/01/06 06:17:17;;;;;;;;;;;2.40;1.00;;;;;;5078306;28;19956;-80
2022/01/06 06:19:42;;;;;;;;;;;2.40;1.00;;;;;;5075327;28;19912;-80
2022/01/06 06:22:10;;;;;;;;;;;2.30;1.00;;;;;;5077664;28;19920;-80
2022/01/06 06:24:36;;;;;;;;;;;2.30;1.00;;;;;;5078241;28;19919;-79
2022/01/06 06:27:01;;;;;;;;;;;2.30;1.00;;;;;;5084784;28;19917;-80
2022/01/06 06:29:27;;;;;;;;;;;2.30;1.00;;;;;;5089165;28;19912;-80
2022/01/06 06:31:52;;;;;;;;;;;2.30;1.00;;;;;;5076765;28;19918;-80
2022/01/06 06:34:18;;;;;;;;;;;2.30;1.00;;;;;;5081861;28;19934;-80
2022/01/06 06:36:43;;;;;;;;;;;2.30;1.00;;;;;;5049644;28;20400;-80
2022/01/06 06:39:08;;;;;;;;;;;2.40;1.00;;;;;;5063873;28;19917;-80
2022/01/06 06:41:34;;;;;;;;;;;2.40;1.00;;;;;;5084455;28;19909;-80
2022/01/06 06:43:59;;;;;;;;;;;2.40;1.00;;;;;;5076742;28;19977;-80
2022/01/06 06:46:25;;;;;;;;;;;2.40;1.00;;;;;;5070941;28;19912;-80
2022/01/06 06:48:50;;;;;;;;;;;2.40;1.00;;;;;;5081234;28;19913;-80
2022/01/06 06:51:16;;;;;;;;;;;2.30;1.00;;;;;;5086147;28;19912;-80
2022/01/06 06:53:42;;;;;;;;;;;2.30;1.00;;;;;;5064172;28;19913;-80
2022/01/06 06:56:07;;;;;;;;;;;2.30;1.00;;;;;;5049048;28;19917;-80
2022/01/06 06:58:33;;;;;;;;;;;2.40;1.00;;;;;;5082646;28;19908;-81
2022/01/06 07:00:58;;;;;;;;;;;2.40;1.00;;;;;;5080247;28;19912;-80
2022/01/06 07:03:24;;;;;;;;;;;2.40;1.00;;;;;;5081830;28;20020;-80
2022/01/06 07:05:49;;;;;;;;;;;2.40;1.00;;;;;;5077203;28;20049;-80
2022/01/06 07:08:15;;;;;;;;;;;2.40;1.00;;;;;;5088284;28;20345;-80
2022/01/06 07:10:41;;;;;;;;;;;2.40;1.00;;;;;;5074202;28;19943;-80
2022/01/06 07:13:06;;;;;;;;;;;2.40;1.00;;;;;;5067635;28;19923;-80
2022/01/06 07:15:34;;;;;;;;;;;2.50;1.00;;;;;;5081077;28;19919;-80
2022/01/06 07:17:59;;;;;;;;;;;2.60;1.00;;;;;;5085161;28;20438;-80
2022/01/06 07:20:25;;;;;;;;;;;2.70;1.00;;;;;;5081559;28;19912;-80
2022/01/06 07:22:50;;;;;;;;;;;2.70;1.00;;;;;;5067758;28;19912;-80
2022/01/06 07:25:16;;;;;;;;;;;2.80;1.00;;;;;;5064303;28;19912;-80
2022/01/06 07:27:41;;;;;;;;;;;2.70;1.00;;;;;;5077883;28;19916;-80
2022/01/06 07:30:07;;;;;;;;;;;2.70;1.00;;;;;;5059922;28;19912;-80
2022/01/06 07:32:40;;;;;;;;;;;2.70;1.00;;;;;;5060611;28;19912;-80
2022/01/06 07:35:06;;;;;;;;;;;2.70;1.00;;;;;;5077216;28;19939;-80
2022/01/06 07:37:31;;;;;;;;;;;2.70;1.00;;;;;;5075913;28;19920;-80
2022/01/06 07:39:56;;;;;;;;;;;2.70;1.00;;;;;;5077469;28;19913;-80
2022/01/06 07:42:22;;;;;;;;;;;2.60;1.00;;;;;;5072925;28;20430;-80
2022/01/06 07:44:49;;;;;;;;;;;2.60;1.00;;;;;;5076524;28;19951;-80
2022/01/06 07:47:15;;;;;;;;;;;2.60;1.00;;;;;;5071481;28;19935;-81
2022/01/06 07:49:41;;;;;;;;;;;2.60;1.00;;;;;;5057364;28;19912;-80
2022/01/06 07:52:06;;;;;;;;;;;2.60;1.00;;;;;;5069000;28;19973;-80
2022/01/06 07:54:31;;;;;;;;;;;2.60;1.00;;;;;;5047925;28;20007;-80
2022/01/06 07:56:57;;;;;;;;;;;2.60;1.00;;;;;;5071443;28;19923;-80
2022/01/06 07:59:22;;;;;;;;;;;2.60;1.00;;;;;;5068651;28;20183;-80
2022/01/06 08:01:48;;;;;;;;;;;2.70;1.00;;;;;;5068971;28;19980;-80
2022/01/06 08:04:13;;;;;;;;;;;2.80;1.00;;;;;;5055266;28;19908;-80
2022/01/06 08:06:39;;;;;;;;;;;2.80;1.00;;;;;;5053721;28;19917;-80
2022/01/06 08:09:04;;;;;;;;;;;2.80;1.00;;;;;;5059548;28;20364;-80
2022/01/06 08:11:30;;;;;;;;;;;2.90;1.00;;;;;;5071321;28;19908;-80
2022/01/06 08:13:55;;;;;;;;;;;2.90;1.00;;;;;;5064418;28;20000;-79
2022/01/06 08:16:21;;;;;;;;;;;3.00;1.00;;;;;;5045705;28;19923;-80
2022/01/06 08:18:46;;;;;;;;;;;3.00;1.00;;;;;;5069299;28;19912;-79
2022/01/06 08:21:12;;;;;;;;;;;3.10;1.00;;;;;;5052449;28;19926;-81
2022/01/06 08:23:37;;;;;;;;;;;3.20;1.00;;;;;;5069497;28;19921;-80
2022/01/06 08:26:03;;;;;;;;;;;3.30;1.00;;;;;;5062425;28;20003;-80
2022/01/06 08:28:29;;;;;;;;;;;3.50;1.00;;;;;;5075114;28;19908;-80
2022/01/06 08:30:54;;;;;;;;;;;3.80;1.00;;;;;;5076796;28;19942;-80
2022/01/06 08:33:20;;;;;;;;;;;4.20;99.90;;;;;;5074782;28;19934;-79
2022/01/06 08:35:45;;;;;;;;;;;4.60;99.90;;;;;;5074475;28;19909;-80
2022/01/06 08:38:11;;;;;;;;;;;4.70;1.00;;;;;;5076258;28;19908;-81
2022/01/06 08:40:37;;;;;;;;;;;4.80;99.90;;;;;;5076008;28;19955;-80
2022/01/06 08:43:02;;;;;;;;;;;5.10;22.50;;;;;;5077114;28;19909;-80
2022/01/06 08:45:28;;;;;;;;;;;5.10;1.00;;;;;;5078683;28;19919;-80
2022/01/06 08:47:53;;;;;;;;;;;5.10;1.00;;;;;;5079513;28;19909;-81
2022/01/06 08:50:19;;;;;;;;;;;5.10;99.90;;;;;;5079646;28;19912;-80
2022/01/06 08:52:46;;;;;;;;;;;5.20;99.90;;;;;;5078853;28;19909;-80
2022/01/06 08:55:11;;;;;;;;;;;5.40;1.00;;;;;;5080191;28;19909;-80
2022/01/06 08:57:37;;;;;;;;;;;5.60;1.00;;;;;;5079768;28;19912;-80
2022/01/06 09:00:04;;;;;;;;;;;5.80;99.90;;;;;;5079796;28;19909;-80
2022/01/06 09:02:29;;;;;;;;;;;6.00;99.90;;;;;;5079174;28;20045;-80
2022/01/06 09:04:56;;;;;;;;;;;6.20;1.00;;;;;;5061952;28;19915;-81
2022/01/06 09:07:25;;;;;;;;;;;6.20;99.90;;;;;;5079854;28;19915;-80
2022/01/06 09:09:50;;;;;;;;;;;6.10;99.90;;;;;;5061918;28;19908;-80
2022/01/06 09:12:19;;;;;;;;;;;6.00;99.90;;;;;;5079048;28;19909;-80
2022/01/06 09:14:44;;;;;;;;;;;6.00;99.90;;;;;;5079554;28;19913;-80
2022/01/06 09:17:10;;;;;;;;;;;6.10;99.90;;;;;;5078937;28;20003;-79
2022/01/06 09:19:35;;;;;;;;;;;6.20;28.20;;;;;;5061844;28;19909;-80
2022/01/06 09:22:01;;;;;;;;;;;6.30;1.00;;;;;;5079150;28;20003;-80
2022/01/06 09:24:28;;;;;;;;;;;6.40;1.00;;;;;;5060795;28;19909;-80
2022/01/06 09:26:53;;;;;;;;;;;6.50;1.00;;;;;;5070563;28;19927;-80
2022/01/06 09:29:19;;;;;;;;;;;6.60;1.00;;;;;;5078957;28;20439;-80
2022/01/06 09:31:44;;;;;;;;;;;6.60;1.00;;;;;;5079010;28;19908;-80
2022/01/06 09:34:10;;;;;;;;;;;6.70;1.00;;;;;;5078811;28;19909;-80
2022/01/06 09:36:37;;;;;;;;;;;6.70;1.00;;;;;;5079514;28;19913;-80
2022/01/06 09:39:03;;;;;;;;;;;6.80;1.00;;;;;;5078776;28;19909;-80
2022/01/06 09:41:30;;;;;;;;;;;6.80;1.00;;;;;;5077317;28;19973;-80
2022/01/06 09:43:56;;;;;;;;;;;6.90;1.00;;;;;;5077123;28;20034;-80
2022/01/06 09:46:22;;;;;;;;;;;6.90;1.00;;;;;;5079048;28;19930;-80
2022/01/06 09:48:48;;;;;;;;;;;7.00;1.00;;;;;;5079446;28;19948;-80
2022/01/06 09:51:14;;;;;;;;;;;7.00;1.00;;;;;;5077657;28;19912;-80
2022/01/06 09:53:40;;;;;;;;;;;7.20;1.00;;;;;;5077164;28;19913;-80
2022/01/06 09:56:05;;;;;;;;;;;7.40;1.00;;;;;;5077127;28;20422;-80
2022/01/06 09:58:32;;;;;;;;;;;7.50;1.00;;;;;;5078968;28;19909;-80
2022/01/06 10:00:58;;;;;;;;;;;7.60;99.90;;;;;;5077476;28;20007;-80
2022/01/06 10:03:37;;;;;;;;;;;7.50;99.90;;;;;;5079017;28;20007;-80
2022/01/06 10:06:10;;;;;;;;;;;7.50;99.90;;;;;;5078221;28;19940;-80
2022/01/06 10:08:36;;;;;;;;;;;7.50;99.90;;;;;;5077937;28;19908;-80
2022/01/06 10:11:08;;;;;;;;;;;7.40;99.90;;;;;;5077980;28;20019;-80
2022/01/06 10:13:33;;;;;;;;;;;7.40;99.90;;;;;;5078660;28;19951;-80
2022/01/06 10:15:59;;;;;;;;;;;7.40;99.90;;;;;;5078781;28;19916;-80
2022/01/06 10:18:24;;;;;;;;;;;7.30;99.90;;;;;;5077607;28;20005;-80
2022/01/06 10:20:52;;;;;;;;;;;7.30;99.90;;;;;;5079006;28;19908;-80
2022/01/06 10:23:18;;;;;;;;;;;7.40;99.90;;;;;;5078101;28;19912;-80
2022/01/06 10:25:48;;;;;;;;;;;7.50;99.90;;;;;;5078457;28;19920;-80
2022/01/06 10:28:18;;;;;;;;;;;7.50;99.90;;;;;;5078542;28;19908;-80
2022/01/06 10:30:48;;;;;;;;;;;7.50;99.90;;;;;;5060464;28;19909;-80
2022/01/06 10:33:17;;;;;;;;;;;7.40;99.90;;;;;;5078396;28;19909;-80
2022/01/06 10:35:42;;;;;;;;;;;7.40;99.90;;;;;;5078841;28;20423;-80
2022/01/06 10:38:08;;;;;;;;;;;7.40;99.90;;;;;;5060509;28;19908;-80
2022/01/06 10:40:33;;;;;;;;;;;7.40;99.90;;;;;;5078654;28;19908;-81
2022/01/06 10:43:05;;;;;;;;;;;7.40;99.90;;;;;;5078758;28;19983;-80
2022/01/06 10:45:30;;;;;;;;;;;7.40;99.90;;;;;;5060505;28;19908;-80
2022/01/06 10:47:57;;;;;;;;;;;7.50;99.90;;;;;;5078439;28;20364;-80
2022/01/06 10:50:26;;;;;;;;;;;7.60;99.90;;;;;;5060057;28;20331;-80
2022/01/06 10:52:56;;;;;;;;;;;7.50;99.90;;;;;;5077887;28;19934;-80
2022/01/06 10:55:27;;;;;;;;;;;7.50;99.90;;;;;;5077614;28;19954;-80
2022/01/06 10:58:13;;;;;;;;;;;7.50;99.90;;;;;;5077447;28;19932;-80
2022/01/06 11:00:39;;;;;;;;;;;7.50;99.90;;;;;;5059377;28;19951;-80
2022/01/06 11:03:06;;;;;;;;;;;7.50;99.90;;;;;;5078098;28;19970;-80
2022/01/06 11:05:33;;;;;;;;;;;7.50;99.90;;;;;;5059930;28;19909;-80
2022/01/06 11:07:59;;;;;;;;;;;7.60;99.90;;;;;;5060487;28;20398;-80
2022/01/06 11:10:25;;;;;;;;;;;7.60;99.90;;;;;;5078821;28;19958;-80
2022/01/06 11:12:50;;;;;;;;;;;7.80;99.90;;;;;;5060408;28;19908;-80
2022/01/06 11:15:16;;;;;;;;;;;8.10;99.90;;;;;;5078400;28;19915;-81
2022/01/06 11:17:45;;;;;;;;;;;8.20;99.90;;;;;;5060621;28;20296;-82
2022/01/06 11:20:11;;;;;;;;;;;8.20;99.90;;;;;;5060249;28;19908;-80
2022/01/06 11:22:47;;;;;;;;;;;8.20;99.90;;;;;;5077463;28;20352;-80
2022/01/06 11:25:12;;;;;;;;;;;8.20;99.90;;;;;;5059747;28;20305;-80
2022/01/06 11:27:38;;;;;;;;;;;8.50;99.90;;;;;;5075661;28;19943;-80
2022/01/06 11:30:07;;;;;;;;;;;8.90;99.90;;;;;;5077922;28;19908;-81
2022/01/06 11:32:33;;;;;;;;;;;9.20;99.90;;;;;;5075746;28;19912;-81
2022/01/06 11:35:02;;;;;;;;;;;9.50;99.90;;;;;;5079376;28;19919;-81
2022/01/06 11:37:37;;;;;;;;;;;9.70;99.90;;;;;;5079264;28;19912;-80
2022/01/06 11:40:03;;;;;;;;;;;9.90;99.90;;;;;;5079394;28;19909;-79
2022/01/06 11:42:29;;;;;;;;;;;9.80;63.30;;;;;;5079134;28;19958;-80
2022/01/06 11:44:55;;;;;;;;;;;9.90;38.00;;;;;;5079318;28;19916;-80
2022/01/06 11:47:50;;;;;;;;;;;10.10;1.00;;;;;;5079940;28;19952;-80
2022/01/06 11:50:19;;;;;;;;;;;10.90;1.00;;;;;;5073860;28;19909;-80
2022/01/06 11:52:53;;;;;;;;;;;11.30;1.00;;;;;;5078652;28;19912;-80
2022/01/06 11:55:20;;;;;;;;;;;11.20;1.00;;;;;;5077847;28;19908;-80
2022/01/06 11:57:46;;;;;;;;;;;11.10;1.00;;;;;;5077800;28;19934;-80
2022/01/06 12:00:14;;;;;;;;;;;10.70;1.00;;;;;;5079520;28;19994;-80
2022/01/06 12:02:39;;;;;;;;;;;10.40;1.00;;;;;;5079798;28;19912;-80
2022/01/06 12:05:05;;;;;;;;;;;10.30;1.00;;;;;;5080054;28;19978;-80
2022/01/06 12:07:31;;;;;;;;;;;10.10;1.00;;;;;;5079160;28;19959;-80
2022/01/06 12:09:58;;;;;;;;;;;9.90;1.00;;;;;;5080033;28;19909;-80
2022/01/06 12:12:31;;;;;;;;;;;9.80;1.00;;;;;;5078903;28;19908;-80
2022/01/06 12:15:26;;;;;;;;;;;9.70;1.00;;;;;;5079129;28;19914;-80
2022/01/06 12:17:52;;;;;;;;;;;9.60;1.00;;;;;;5073834;28;20399;-79
2022/01/06 12:20:22;;;;;;;;;;;9.70;1.00;;;;;;5077716;28;19908;-80
2022/01/06 12:22:48;;;;;;;;;;;9.80;1.00;;;;;;5077616;28;19916;-80
2022/01/06 12:25:13;;;;;;;;;;;9.70;1.00;;;;;;5078210;28;19909;-80
2022/01/06 12:27:45;;;;;;;;;;;9.70;1.00;;;;;;5067904;28;20284;-80
2022/01/06 12:30:11;;;;;;;;;;;9.70;1.00;;;;;;5061811;28;19915;-80
2022/01/06 12:32:36;;;;;;;;;;;9.60;1.00;;;;;;5043622;28;19944;-80
2022/01/06 12:35:02;;;;;;;;;;;9.60;1.00;;;;;;5045808;28;19913;-80
2022/01/06 12:37:28;;;;;;;;;;;9.60;1.00;;;;;;5053369;28;19917;-80
2022/01/06 12:39:55;;;;;;;;;;;9.70;1.00;;;;;;5082385;28;19908;-80
2022/01/06 12:42:21;;;;;;;;;;;10.20;1.00;;;;;;5056827;28;19952;-80
2022/01/06 12:44:46;;;;;;;;;;;10.60;1.00;;;;;;5062064;28;19931;-80
2022/01/06 12:47:12;;;;;;;;;;;10.80;1.00;;;;;;5053028;28;19913;-79
2022/01/06 12:49:38;;;;;;;;;;;11.20;1.00;;;;;;5080122;28;19909;-80
2022/01/06 12:52:05;;;;;;;;;;;11.60;1.00;;;;;;5083599;28;20388;-80
2022/01/06 12:54:33;;;;;;;;;;;11.90;1.00;;;;;;5085415;28;19912;-80
2022/01/06 12:57:01;;;;;;;;;;;12.40;1.00;;;;;;5070524;28;19912;-80
2022/01/06 12:59:34;;;;;;;;;;;13.00;1.00;;;;;;5064898;28;19930;-80
2022/01/06 13:02:02;;;;;;;;;;;13.50;1.00;;;;;;5060751;28;20388;-80
2022/01/06 13:04:29;;;;;;;;;;;13.80;1.00;;;;;;5050391;28;20388;-80
2022/01/06 13:06:58;;;;;;;;;;;13.40;1.00;;;;;;5043480;28;19963;-80
2022/01/06 13:09:25;;;;;;;;;;;13.40;1.00;;;;;;5061984;28;19913;-80
2022/01/06 13:11:52;;;;;;;;;;;13.30;1.00;;;;;;5041317;28;19909;-80
2022/01/06 13:14:30;;;;;;;;;;;13.60;1.00;;;;;;5058298;28;20007;-79
2022/01/06 13:17:05;;;;;;;;;;;13.90;1.00;;;;;;5074058;28;19912;-80
2022/01/06 13:19:31;;;;;;;;;;;14.20;1.00;;;;;;5071071;28;19908;-80
2022/01/06 13:21:57;;;;;;;;;;;14.30;1.00;;;;;;5078708;28;20007;-80
2022/01/06 13:24:27;;;;;;;;;;;14.50;1.00;;;;;;5048542;28;19908;-80
2022/01/06 13:26:59;;;;;;;;;;;14.50;1.00;;;;;;5058767;28;19956;-81
2022/01/06 13:29:25;;;;;;;;;;;14.50;1.00;;;;;;5042942;28;19972;-81
2022/01/06 13:32:08;;;;;;;;;;;14.50;1.00;;;;;;5061642;28;20410;-80
2022/01/06 13:34:34;;;;;;;;;;;14.50;1.00;;;;;;5072490;28;19912;-80
2022/01/06 13:37:01;;;;;;;;;;;14.40;1.00;;;;;;5081268;28;19908;-80
2022/01/06 13:39:32;;;;;;;;;;;14.40;1.00;;;;;;5054175;28;20438;-80
2022/01/06 13:41:58;;;;;;;;;;;14.40;1.00;;;;;;5060592;28;20332;-80
2022/01/06 13:44:24;;;;;;;;;;;14.40;1.00;;;;;;5069376;28;19913;-80
2022/01/06 13:47:05;;;;;;;;;;;14.40;1.00;;;;;;5081440;28;19947;-80
2022/01/06 13:52:28;;;;;;;;;;;14.30;1.00;;;;;;5080858;28;19934;-81
2022/01/06 13:54:55;;;;;;;;;;;14.10;1.00;;;;;;5064520;28;19913;-80
2022/01/06 13:57:20;;;;;;;;;;;13.50;1.00;;;;;;5058784;28;19920;-80
2022/01/06 13:59:46;;;;;;;;;;;12.80;1.00;;;;;;5062182;28;19912;-80
2022/01/06 14:02:12;;;;;;;;;;;12.20;1.00;;;;;;5062494;28;19912;-80
2022/01/06 14:04:40;;;;;;;;;;;11.70;1.00;;;;;;5078949;28;19912;-80
2022/01/06 14:07:06;;;;;;;;;;;11.10;1.00;;;;;;5079762;28;19924;-80
2022/01/06 14:09:31;;;;;;;;;;;10.70;1.00;;;;;;5080488;28;19909;-80
2022/01/06 14:11:57;;;;;;;;;;;10.40;1.00;;;;;;5079917;28;19968;-80
2022/01/06 14:14:26;;;;;;;;;;;10.50;1.00;;;;;;5044145;28;19916;-80
2022/01/06 14:16:52;;;;;;;;;;;10.50;1.00;;;;;;5060998;28;19912;-80
2022/01/06 14:19:17;;;;;;;;;;;10.40;1.00;;;;;;5043259;28;19916;-80
2022/01/06 14:21:43;;;;;;;;;;;10.20;1.00;;;;;;5062566;28;19913;-80
2022/01/06 14:24:08;;;;;;;;;;;9.80;1.00;;;;;;5062368;28;19924;-80
2022/01/06 14:26:34;;;;;;;;;;;9.50;1.00;;;;;;5060910;28;19917;-80
2022/01/06 14:28:59;;;;;;;;;;;9.30;1.00;;;;;;5055181;28;20299;-80
2022/01/06 14:31:25;;;;;;;;;;;9.10;1.00;;;;;;5072183;28;19939;-80
2022/01/06 14:33:52;;;;;;;;;;;9.00;1.00;;;;;;5072958;28;19917;-80
2022/01/06 14:36:20;;;;;;;;;;;9.10;1.00;;;;;;5061908;28;19923;-80
2022/01/06 14:38:46;;;;;;;;;;;9.30;1.00;;;;;;5082258;28;20446;-80
2022/01/06 14:41:12;;;;;;;;;;;9.50;1.00;;;;;;5057684;28;19913;-80
2022/01/06 14:43:38;;;;;;;;;;;9.50;1.00;;;;;;5069450;28;19995;-80
2022/01/06 14:46:04;;;;;;;;;;;9.50;1.00;;;;;;5064870;28;19956;-80